Map

Track Data

SID SEASON NUMBER BASIN SUBBASIN NAME ISO_TIME NATURE LAT LON WMO_WIND WMO_PRES WMO_AGENCY TRACK_TYPE DIST2LAND LANDFALL IFLAG USA_AGENCY USA_ATCF_ID USA_LAT USA_LON USA_RECORD USA_STATUS USA_WIND USA_PRES USA_SSHS USA_R34_NE USA_R34_SE USA_R34_SW USA_R34_NW USA_R50_NE USA_R50_SE USA_R50_SW USA_R50_NW USA_R64_NE USA_R64_SE USA_R64_SW USA_R64_NW USA_POCI USA_ROCI USA_RMW USA_EYE TOKYO_LAT TOKYO_LON TOKYO_GRADE TOKYO_WIND TOKYO_PRES TOKYO_R50_DIR TOKYO_R50_LONG TOKYO_R50_SHORT TOKYO_R30_DIR TOKYO_R30_LONG TOKYO_R30_SHORT TOKYO_LAND CMA_LAT CMA_LON CMA_CAT CMA_WIND CMA_PRES HKO_LAT HKO_LON HKO_CAT HKO_WIND HKO_PRES NEWDELHI_LAT NEWDELHI_LON NEWDELHI_GRADE NEWDELHI_WIND NEWDELHI_PRES NEWDELHI_CI NEWDELHI_DP NEWDELHI_POCI REUNION_LAT REUNION_LON REUNION_TYPE REUNION_WIND REUNION_PRES REUNION_TNUM REUNION_CI REUNION_RMW REUNION_R34_NE REUNION_R34_SE REUNION_R34_SW REUNION_R34_NW REUNION_R50_NE REUNION_R50_SE REUNION_R50_SW REUNION_R50_NW REUNION_R64_NE REUNION_R64_SE REUNION_R64_SW REUNION_R64_NW BOM_LAT BOM_LON BOM_TYPE BOM_WIND BOM_PRES BOM_TNUM BOM_CI BOM_RMW BOM_R34_NE BOM_R34_SE BOM_R34_SW BOM_R34_NW BOM_R50_NE BOM_R50_SE BOM_R50_SW BOM_R50_NW BOM_R64_NE BOM_R64_SE BOM_R64_SW BOM_R64_NW BOM_ROCI BOM_POCI BOM_EYE BOM_POS_METHOD BOM_PRES_METHOD NADI_LAT NADI_LON NADI_CAT NADI_WIND NADI_PRES WELLINGTON_LAT WELLINGTON_LON WELLINGTON_WIND WELLINGTON_PRES DS824_LAT DS824_LON DS824_STAGE DS824_WIND DS824_PRES TD9636_LAT TD9636_LON TD9636_STAGE TD9636_WIND TD9636_PRES TD9635_LAT TD9635_LON TD9635_WIND TD9635_PRES TD9635_ROCI NEUMANN_LAT NEUMANN_LON NEUMANN_CLASS NEUMANN_WIND NEUMANN_PRES MLC_LAT MLC_LON MLC_CLASS MLC_WIND MLC_PRES USA_GUST BOM_GUST BOM_GUST_PER REUNION_GUST REUNION_GUST_PER USA_SEAHGT USA_SEARAD_NE USA_SEARAD_SE USA_SEARAD_SW USA_SEARAD_NW STORM_SPEED STORM_DIR
1951223N11148 1951 56 WP MM MARGE 1951-08-10 12:00:00 TS 10.9167 147.617 987 tokyo main 1456 1456 OOO______OOO__ jtwc_wp WP071951 11.0000 147.700 35 0 10.8000 147.400 2 987 0 0 0 10.7000 147.500 3 48 987 11.0000 147.700 TC 35 11.0000 147.700 2 35 11.0000 147.700 35 992 240 13 301
1951223N11148 1951 56 WP MM MARGE 1951-08-10 15:00:00 TS 11.2552 147.051 main 1501 1501 PPP______PPP__ WP071951 11.2330 147.033 40 0 11.3250 146.973 2 986 0 0 11.2127 146.998 3 53 986 11.2330 147.033 TC 40 11.2944 147.240 2 40 11.2330 147.033 40 989 240 13 303
1951223N11148 1951 56 WP MM MARGE 1951-08-10 18:00:00 TS 11.5985 146.547 985 tokyo main 1535 1535 OOO______OPO__ jtwc_wp WP071951 11.5000 146.500 45 0 11.8000 146.500 2 985 0 0 0 11.7000 146.500 3 58 985 11.5000 146.500 TC 45 11.5908 146.783 2 45 11.5000 146.500 45 986 240 11 308
1951223N11148 1951 56 WP MM MARGE 1951-08-10 21:00:00 TS 11.9497 146.143 main 1569 1569 PPP______PPP__ WP071951 11.8272 146.177 50 0 12.1876 145.970 2 983 0 0 12.1375 146.020 3 58 983 11.8272 146.177 TC 50 11.8917 146.335 2 50 11.8272 146.177 50 984 240 10 313
1951223N11148 1951 56 WP MM MARGE 1951-08-11 00:00:00 TS 12.3000 145.783 982 tokyo main 1615 1615 OOO______OOO__ jtwc_wp WP071951 12.2000 145.900 55 0 12.5000 145.500 9 982 0 0 0 12.5000 145.600 3 58 982 12.2000 145.900 TC 55 12.2000 145.900 2 55 12.2000 145.900 55 982 240 10 314
1951223N11148 1951 56 WP MM MARGE 1951-08-11 03:00:00 TS 12.6619 145.398 main 1663 1663 PPP______PPP__ WP071951 12.6301 145.465 60 0 12.7873 145.227 9 981 0 0 12.7798 145.285 3 58 982 12.6301 145.465 TC 60 12.5143 145.480 2 57 12.6301 145.465 60 981 270 10 312
1951223N11148 1951 56 WP MM MARGE 1951-08-11 06:00:00 TS 12.9695 145.011 981 tokyo main 1700 1700 OOO______OPO__ jtwc_wp WP071951 13.0000 145.000 65 1 13.0000 145.000 9 981 0 0 0 13.0000 145.000 3 58 982 13.0000 145.000 TC 65 12.8169 145.065 2 60 13.0000 145.000 65 981 300 9 304
1951223N11148 1951 56 WP MM MARGE 1951-08-11 09:00:00 TS 13.1668 144.631 main 1728 1728 PPP______PPP__ WP071951 13.1874 144.600 65 1 13.1225 144.672 9 981 0 0 13.2299 144.673 3 58 982 13.1874 144.600 TC 65 13.0861 144.643 2 62 13.1874 144.600 65 981 300 8 294
1951223N11148 1951 56 WP MM MARGE 1951-08-11 12:00:00 TS 13.3000 144.233 981 tokyo main 1745 1745 OOO______OOO__ jtwc_wp WP071951 13.3000 144.200 65 1 13.2000 144.300 9 981 0 0 0 13.4000 144.300 3 58 982 13.3000 144.200 TC 65 13.3000 144.200 3 65 13.3000 144.200 65 981 300 9 289
1951223N11148 1951 56 WP MM MARGE 1951-08-11 15:00:00 TS 13.4430 143.793 main 1763 1763 PPP______PPP__ WP071951 13.4724 143.773 67 1 13.3075 143.908 9 981 0 0 13.4801 143.850 3 58 982 13.4724 143.773 TC 67 13.4531 143.685 3 67 13.4724 143.773 67 981 300 9 285
1951223N11148 1951 56 WP MM MARGE 1951-08-11 18:00:00 TS 13.5413 143.326 982 tokyo main 1782 1776 OOO______OPO__ jtwc_wp WP071951 13.6000 143.300 70 1 13.4000 143.500 9 982 0 0 0 13.5000 143.400 3 58 982 13.6000 143.300 TC 70 13.5480 143.155 3 70 13.6000 143.300 70 982 300 10 278
1951223N11148 1951 56 WP MM MARGE 1951-08-11 21:00:00 TS 13.5774 142.820 main 1776 1764 PPP______PPP__ WP071951 13.6302 142.720 72 1 13.4650 143.085 9 982 0 0 13.5149 143.027 3 58 982 13.6302 142.720 TC 72 13.5938 142.647 3 72 13.6302 142.720 72 982 300 9 272
1951223N11148 1951 56 WP MM MARGE 1951-08-12 00:00:00 TS 13.5667 142.367 982 tokyo main 1764 1741 OOO______OOO__ jtwc_wp WP071951 13.6000 142.200 75 1 13.5000 142.700 9 982 0 0 0 13.5000 142.700 3 58 982 13.6000 142.200 TC 75 13.6000 142.200 4 75 13.6000 142.200 75 982 300 7 267
1951223N11148 1951 56 WP MM MARGE 1951-08-12 03:00:00 TS 13.5369 142.063 main 1741 1729 PPP______PPP__ WP071951 13.5573 141.913 77 1 13.5149 142.385 9 982 0 0 13.4574 142.400 3 58 982 13.5573 141.913 TC 77 13.5773 141.856 4 76 13.5573 141.913 77 982 270 5 262
1951223N11148 1951 56 WP MM MARGE 1951-08-12 06:00:00 TS 13.4870 141.812 983 tokyo main 1729 1706 OOO______OPO__ jtwc_wp WP071951 13.5000 141.700 80 1 13.5000 142.100 9 983 0 0 0 13.4000 142.100 3 58 982 13.5000 141.700 TC 80 13.5219 141.575 4 77 13.5000 141.700 80 983 240 5 259
1951223N11148 1951 56 WP MM MARGE 1951-08-12 09:00:00 TS 13.4305 141.518 main 1706 1694 PPP______PPP__ WP071951 13.4425 141.407 80 1 13.4499 141.807 9 981 0 0 13.3500 141.750 3 63 980 13.4425 141.407 TC 80 13.4555 141.331 4 78 13.4425 141.407 80 982 240 6 260
1951223N11148 1951 56 WP MM MARGE 1951-08-12 12:00:00 TS 13.3833 141.217 979 tokyo main 1694 1663 OOO______OOO__ jtwc_wp WP071951 13.4000 141.100 80 1 13.4000 141.500 9 979 0 0 0 13.3000 141.400 4 68 978 13.4000 141.100 TC 80 13.4000 141.100 4 80 13.4000 141.100 80 981 240 6 263
1951223N11148 1951 56 WP MM MARGE 1951-08-12 15:00:00 TS 13.3590 140.909 main 1663 1631 PPP______PPP__ WP071951 13.3925 140.785 82 1 13.3925 141.150 9 975 0 0 13.2349 141.100 4 72 975 13.3925 140.785 TC 82 13.3489 140.847 4 82 13.3925 140.785 82 979 330 6 267
1951223N11148 1951 56 WP MM MARGE 1951-08-12 18:00:00 TS 13.3529 140.617 972 tokyo main 1631 1608 OOO______OPO__ jtwc_wp WP071951 13.4000 140.500 85 2 13.4000 140.800 9 972 0 0 0 13.2000 140.800 4 77 973 13.4000 140.500 TC 85 13.3173 140.600 4 85 13.4000 140.500 85 978 420 5 268
1951223N11148 1951 56 WP MM MARGE 1951-08-12 21:00:00 TS 13.3403 140.371 main 1608 1577 PPP______PPP__ WP071951 13.3699 140.307 87 2 13.3849 140.507 9 971 0 0 13.2200 140.443 4 77 971 13.3699 140.307 TC 87 13.3271 140.353 4 87 13.3699 140.307 87 975 450 5 274
1951223N11148 1951 56 WP MM MARGE 1951-08-13 00:00:00 TS 13.3833 140.117 970 tokyo main 1577 1547 OOO______OOO__ jtwc_wp WP071951 13.4000 140.100 90 2 13.4000 140.200 9 970 0 0 0 13.3000 140.100 4 77 970 13.4000 140.100 TC 90 13.4000 140.100 4 90 13.4000 140.100 90 972 480 6 287
1951223N11148 1951 56 WP MM MARGE 1951-08-13 03:00:00 TS 13.5114 139.778 main 1547 1519 PPP______PPP__ WP071951 13.5626 139.750 90 2 13.4476 139.792 9 968 0 0 13.4050 139.820 4 87 967 13.5626 139.750 TC 90 13.5279 139.808 4 91 13.5626 139.750 90 967 450 7 298
1951223N11148 1951 56 WP MM MARGE 1951-08-13 06:00:00 TS 13.7205 139.452 967 tokyo main 1519 1491 OOO______OPO__ jtwc_wp WP071951 13.8000 139.400 90 2 13.6000 139.400 9 967 0 0 0 13.6000 139.600 5 97 964 13.8000 139.400 TC 90 13.7227 139.513 4 92 13.8000 139.400 90 962 420 7 310
1951223N11148 1951 56 WP MM MARGE 1951-08-13 09:00:00 TS 13.9714 139.209 main 1493 1479 PPP______PPP__ WP071951 14.0124 139.162 92 2 13.8900 139.098 9 962 0 0 13.9200 139.435 5 101 958 14.0124 139.162 TC 92 13.9811 139.236 4 93 14.0124 139.162 92 956 360 7 325
1951223N11148 1951 56 WP MM MARGE 1951-08-13 12:00:00 TS 14.3000 139.033 957 tokyo main 1479 1474 OOO______OOO__ jtwc_wp WP071951 14.3000 139.000 95 2 14.3000 138.900 9 957 0 0 0 14.3000 139.300 6 106 952 14.3000 139.000 TC 95 14.3000 139.000 4 95 14.3000 139.000 95 951 300 8 339
1951223N11148 1951 56 WP MM MARGE 1951-08-13 15:00:00 TS 14.7096 138.914 main 1476 1471 PPP______PPP__ WP071951 14.7275 138.892 95 2 14.7925 138.820 9 949 0 0 14.6275 139.150 6 116 946 14.7275 138.892 TC 95 14.6551 138.840 4 96 14.7275 138.892 95 946 300 9 347
1951223N11148 1951 56 WP MM MARGE 1951-08-13 18:00:00 TS 15.1612 138.820 942 tokyo main 1475 1470 OOO______OPO__ jtwc_wp WP071951 15.2000 138.800 95 2 15.3000 138.800 9 942 0 0 0 15.0000 139.000 6 126 940 15.2000 138.800 TC 95 15.0673 138.719 4 97 15.2000 138.800 95 941 300 9 347
1951223N11148 1951 56 WP MM MARGE 1951-08-13 21:00:00 TS 15.5780 138.705 main 1475 1469 PPP______PPP__ WP071951 15.5925 138.665 97 3 15.7000 138.772 9 935 0 0 15.4700 138.850 6 131 934 15.5925 138.665 TC 97 15.5208 138.614 4 98 15.5925 138.665 97 936 300 9 344
1951223N11148 1951 56 WP MM MARGE 1951-08-14 00:00:00 TS 16.0167 138.567 928 tokyo main 1475 1467 OOO______OOO__ jtwc_wp WP071951 16.0000 138.500 100 3 16.1000 138.700 9 928 0 0 0 16.0000 138.700 6 136 929 16.0000 138.500 TC 100 16.0000 138.500 4 100 16.0000 138.500 100 932 300 10 343
1951223N11148 1951 56 WP MM MARGE 1951-08-14 03:00:00 TS 16.5113 138.404 main 1470 1464 PPP______PPP__ WP071951 16.4850 138.300 100 3 16.5850 138.530 9 924 0 0 16.5499 138.580 6 140 924 16.4850 138.300 TC 100 16.4777 138.415 4 100 16.4850 138.300 100 928 300 11 342
1951223N11148 1951 56 WP MM MARGE 1951-08-14 06:00:00 TS 17.0294 138.217 920 tokyo main 1468 1468 OOO______OPO__ jtwc_wp WP071951 17.0000 138.100 100 3 17.1000 138.300 9 920 0 0 0 17.1000 138.400 6 145 920 17.0000 138.100 TC 100 16.9761 138.305 4 100 17.0000 138.100 100 924 300 11 343
1951223N11148 1951 56 WP MM MARGE 1951-08-14 09:00:00 TS 17.5345 138.072 main 1478 1471 PPP______PPP__ WP071951 17.4993 138.046 100 3 17.6149 138.080 9 918 0 0 17.6075 138.095 6 150 918 17.4993 138.046 TC 100 17.4866 138.118 4 100 17.4993 138.046 100 919 360 11 338
1951223N11148 1951 56 WP MM MARGE 1951-08-14 12:00:00 TS 18.0333 137.783 916 tokyo main 1471 1438 OOO______OOO__ jtwc_wp WP071951 18.0000 137.800 100 3 18.1000 137.800 9 916 0 0 0 18.1000 137.700 6 155 916 18.0000 137.800 TC 100 18.0000 137.800 4 100 18.0000 137.800 100 915 420 13 319
1951223N11148 1951 56 WP MM MARGE 1951-08-14 15:00:00 TS 18.5294 137.153 main 1438 1402 PPP______PPP__ WP071951 18.5013 136.996 100 3 18.5074 137.437 9 915 0 0 18.6225 137.265 6 155 915 18.5013 136.996 TC 100 18.5427 137.229 4 100 18.5013 136.996 100 911 360 16 308
1951223N11148 1951 56 WP MM MARGE 1951-08-14 18:00:00 TS 19.0130 136.439 914 tokyo main 1393 1370 OOO______OPO__ jtwc_wp WP071951 19.0000 136.100 100 3 18.9000 137.000 9 914 0 0 0 19.1000 136.800 6 155 914 19.0000 136.100 TC 100 19.0782 136.534 4 100 19.0000 136.100 100 907 300 15 309
1951223N11148 1951 56 WP MM MARGE 1951-08-14 21:00:00 TS 19.4937 135.884 main 1375 1329 PPP______PPP__ WP071951 19.5221 135.530 100 3 19.3421 136.552 9 912 0 0 19.4799 136.342 6 155 912 19.5221 135.530 TC 100 19.5742 135.822 4 100 19.5221 135.530 100 904 300 13 315
1951223N11148 1951 56 WP MM MARGE 1951-08-15 00:00:00 TS 19.9333 135.450 910 tokyo main 1329 1277 OOO______OOO__ jtwc_wp WP071951 20.0000 135.200 100 3 19.8000 136.000 9 910 0 0 0 19.8000 135.900 6 155 910 20.0000 135.200 TC 100 20.0000 135.200 4 100 20.0000 135.200 100 901 300 11 322
1951223N11148 1951 56 WP MM MARGE 1951-08-15 03:00:00 TS 20.3281 135.181 main 1277 1235 PPP______PPP__ WP071951 20.4021 135.157 100 3 20.2955 135.251 9 898 0 0 20.1147 135.507 6 164 898 20.4021 135.157 TC 100 20.3523 134.856 4 100 20.4021 135.157 100 904 330 9 325
1951223N11148 1951 56 WP MM MARGE 1951-08-15 06:00:00 TS 20.6387 134.918 887 tokyo main 1235 1200 OOO______OPO__ jtwc_wp WP071951 20.7000 135.100 100 3 20.7000 134.500 9 887 0 0 0 20.4000 135.100 6 174 887 20.7000 135.100 TC 100 20.6322 134.610 4 100 20.7000 135.100 100 908 360 8 309
1951223N11148 1951 56 WP MM MARGE 1951-08-15 09:00:00 TS 20.8548 134.497 main 1190 1164 PPP______PPP__ WP071951 20.9027 134.675 100 3 20.9021 133.947 9 886 0 0 20.6724 134.622 6 174 886 20.9027 134.675 TC 100 20.8462 134.385 4 100 20.9027 134.675 100 909 330 9 292
1951223N11148 1951 56 WP MM MARGE 1951-08-15 12:00:00 TS 20.9833 134.000 886 tokyo main 1164 1140 OOO______OOO__ jtwc_wp WP071951 21.0000 134.100 100 3 21.0000 133.500 9 886 0 0 0 20.9000 134.100 6 174 886 21.0000 134.100 TC 100 21.0000 134.100 4 100 21.0000 134.100 100 910 300 10 282
1951223N11148 1951 56 WP MM MARGE 1951-08-15 15:00:00 TS 21.0528 133.478 main 1140 1129 PPP______PPP__ WP071951 21.0075 133.550 100 3 21.1223 133.077 9 893 0 0 21.0875 133.543 6 169 893 21.0075 133.550 TC 100 21.0843 133.601 4 100 21.0075 133.550 100 911 300 10 276
1951223N11148 1951 56 WP MM MARGE 1951-08-15 18:00:00 TS 21.0861 132.957 900 tokyo main 1129 1109 OOO______OPO__ jtwc_wp WP071951 21.0000 133.000 100 3 21.2000 132.700 9 900 0 0 0 21.2000 133.000 6 165 900 21.0000 133.000 TC 100 21.1168 133.041 4 100 21.0000 133.000 100 912 300 10 275
1951223N11148 1951 56 WP MM MARGE 1951-08-15 21:00:00 TS 21.1376 132.451 main 1109 1061 PPP______PPP__ WP071951 21.0701 132.455 100 3 21.2524 132.343 9 908 0 0 21.2224 132.512 6 155 908 21.0701 132.455 TC 100 21.1406 132.486 4 100 21.0701 132.455 100 913 300 9 277
1951223N11148 1951 56 WP MM MARGE 1951-08-16 00:00:00 TS 21.2000 132.017 916 tokyo main 1061 1031 OOO______OOO__ jtwc_wp WP071951 21.2000 132.000 100 3 21.2000 132.000 9 916 0 0 0 21.2000 132.100 6 145 916 21.2000 132.000 TC 100 21.2000 132.000 4 100 21.2000 132.000 100 914 300 7 279
1951223N11148 1951 56 WP MM MARGE 1951-08-16 03:00:00 TS 21.2553 131.692 main 1034 1015 PPP______PPP__ WP071951 21.3847 131.712 95 2 20.8676 131.604 9 920 0 0 21.1699 131.762 6 145 919 21.3847 131.712 TC 95 21.3399 131.647 4 95 21.3847 131.712 95 918 390 6 288
1951223N11148 1951 56 WP MM MARGE 1951-08-16 06:00:00 TS 21.3707 131.445 925 tokyo main 1008 996 OOO______OPO__ jtwc_wp WP071951 21.6000 131.500 90 2 20.7000 131.300 9 925 0 0 0 21.2000 131.500 6 145 922 21.6000 131.500 TC 90 21.5241 131.373 4 90 21.6000 131.500 90 923 480 6 308
1951223N11148 1951 56 WP MM MARGE 1951-08-16 09:00:00 TS 21.5952 131.220 main 996 983 PPP______PPP__ WP071951 21.7775 131.227 85 2 21.1449 131.205 9 922 0 0 21.3475 131.270 6 145 922 21.7775 131.227 TC 85 21.7464 131.162 4 85 21.7775 131.227 85 923 480 6 325
1951223N11148 1951 56 WP MM MARGE 1951-08-16 12:00:00 TS 21.9000 131.050 920 tokyo main 983 963 OOO______OOO__ jtwc_wp WP071951 22.0000 131.000 80 1 21.8000 131.200 9 920 0 0 0 21.6000 131.100 6 145 923 22.0000 131.000 TC 80 22.0000 131.000 4 80 22.0000 131.000 80 923 480 7 339
1951223N11148 1951 56 WP MM MARGE 1951-08-16 15:00:00 TS 22.2419 130.946 main 953 938 PPP______PPP__ WP071951 22.3424 130.877 82 1 22.2724 131.172 9 919 0 0 21.9050 130.985 6 145 923 22.3424 130.877 TC 82 22.2465 130.884 4 82 22.3424 130.877 82 923 480 7 346
1951223N11148 1951 56 WP MM MARGE 1951-08-16 18:00:00 TS 22.6041 130.868 919 tokyo main 938 904 OOO______OPO__ jtwc_wp WP071951 22.7000 130.800 85 2 22.7000 131.100 9 919 0 0 0 22.3000 130.900 6 145 923 22.7000 130.800 TC 85 22.5245 130.806 4 85 22.7000 130.800 85 923 480 7 347
1951223N11148 1951 56 WP MM MARGE 1951-08-16 21:00:00 TS 22.9279 130.774 main 904 871 PPP______PPP__ WP071951 22.9424 130.722 87 2 23.1150 130.930 9 921 0 0 22.7849 130.822 6 145 923 22.9424 130.722 TC 87 22.8402 130.725 4 87 22.9424 130.722 87 923 480 7 342
1951223N11148 1951 56 WP MM MARGE 1951-08-17 00:00:00 TS 23.2667 130.633 923 tokyo main 859 826 OOO______OOO__ jtwc_wp WP071951 23.2000 130.600 90 2 23.5000 130.700 9 923 0 0 0 23.3000 130.700 6 145 924 23.2000 130.600 TC 90 23.2000 130.600 4 90 23.2000 130.600 90 924 480 8 335
1951223N11148 1951 56 WP MM MARGE 1951-08-17 03:00:00 TS 23.6536 130.407 main 815 772 PPP______PPP__ WP071951 23.5625 130.380 95 2 23.8574 130.472 9 926 0 0 23.7650 130.473 6 140 927 23.5625 130.380 TC 95 23.6114 130.356 4 92 23.5625 130.380 95 927 450 9 330
1951223N11148 1951 56 WP MM MARGE 1951-08-17 06:00:00 TS 24.0772 130.128 930 tokyo main 772 730 OOO______OPO__ jtwc_wp WP071951 24.0000 130.100 100 3 24.2000 130.200 9 930 0 0 0 24.2000 130.200 6 136 930 24.0000 130.100 TC 100 24.0631 130.066 4 95 24.0000 130.100 100 930 420 10 329
1951223N11148 1951 56 WP MM MARGE 1951-08-17 09:00:00 TS 24.5256 129.831 main 731 680 PPP______PPP__ WP071951 24.4925 129.800 100 3 24.5350 129.865 9 931 0 0 24.6075 129.950 6 136 930 24.4925 129.800 TC 100 24.5333 129.769 4 97 24.4925 129.800 100 931 420 11 329
1951223N11148 1951 56 WP MM MARGE 1951-08-17 12:00:00 TS 24.9833 129.533 933 tokyo main 680 640 OOO______OOO__ jtwc_wp WP071951 25.0000 129.500 100 3 24.9000 129.500 9 933 0 0 0 25.0000 129.700 6 136 931 25.0000 129.500 TC 100 25.0000 129.500 4 100 25.0000 129.500 100 932 420 11 330
1951223N11148 1951 56 WP MM MARGE 1951-08-17 15:00:00 TS 25.4319 129.250 main 642 601 PPP______PPP__ WP071951 25.4650 129.213 100 3 25.3351 129.105 9 934 0 0 25.3925 129.450 6 136 932 25.4650 129.213 TC 100 25.4685 129.305 4 98 25.4650 129.213 100 932 390 10 333
1951223N11148 1951 56 WP MM MARGE 1951-08-17 18:00:00 TS 25.8708 129.024 935 tokyo main 593 553 OOO______OPO__ jtwc_wp WP071951 25.9000 129.000 100 3 25.8000 128.800 9 935 0 0 0 25.8000 129.200 6 136 933 25.9000 129.000 TC 100 25.9247 129.147 4 97 25.9000 129.000 100 933 360 9 341
1951223N11148 1951 56 WP MM MARGE 1951-08-17 21:00:00 TS 26.3180 128.906 main 553 514 PPP______PPP__ WP071951 26.3374 128.927 97 3 26.2648 128.712 9 935 0 0 26.2875 128.928 6 131 934 26.3374 128.927 TC 97 26.3436 129.015 4 96 26.3374 128.927 97 934 360 9 348
1951223N11148 1951 56 WP MM MARGE 1951-08-18 00:00:00 TS 26.7000 128.833 935 tokyo main 514 493 OOO______OOO__ jtwc_wp WP071951 26.7000 128.900 95 2 26.7000 128.700 9 935 0 0 0 26.7000 128.700 6 126 935 26.7000 128.900 TC 95 26.7000 128.900 4 95 26.7000 128.900 95 935 360 7 347
1951223N11148 1951 56 WP MM MARGE 1951-08-18 03:00:00 TS 26.9550 128.733 main 486 476 PPP______PPP__ WP071951 26.9300 128.807 92 2 27.0875 128.608 9 935 0 0 26.8799 128.577 6 126 935 26.9300 128.807 TC 92 26.9727 128.789 4 91 26.9300 128.807 92 935 390 5 338
1951223N11148 1951 56 WP MM MARGE 1951-08-18 06:00:00 TS 27.1471 128.632 935 tokyo main 480 460 OOO______OPO__ jtwc_wp WP071951 27.1000 128.700 90 2 27.4000 128.500 9 935 0 0 0 27.0000 128.500 6 126 936 27.1000 128.700 TC 90 27.1823 128.692 4 87 27.1000 128.700 90 935 420 4 336
1951223N11148 1951 56 WP MM MARGE 1951-08-18 09:00:00 TS 27.3589 128.536 main 454 444 PPP______PPP__ WP071951 27.3075 128.607 85 2 27.6375 128.392 9 934 0 0 27.2425 128.400 6 126 936 27.3075 128.607 TC 85 27.3508 128.599 4 83 27.3075 128.607 85 935 420 4 336
1951223N11148 1951 56 WP MM MARGE 1951-08-18 12:00:00 TS 27.5500 128.433 934 tokyo main 437 427 OOO______OOO__ jtwc_wp WP071951 27.5000 128.500 80 1 27.8000 128.300 9 934 0 0 0 27.5000 128.300 6 126 936 27.5000 128.500 TC 80 27.5000 128.500 4 80 27.5000 128.500 80 935 420 4 331
1951223N11148 1951 56 WP MM MARGE 1951-08-18 15:00:00 TS 27.7084 128.318 main 431 421 PPP______PPP__ WP071951 27.6575 128.350 82 1 27.9225 128.242 9 934 0 0 27.7074 128.215 6 126 936 27.6575 128.350 TC 82 27.6480 128.398 4 82 27.6575 128.350 82 935 450 4 325
1951223N11148 1951 56 WP MM MARGE 1951-08-18 18:00:00 TS 27.8475 128.198 934 tokyo main 425 410 OOO______OPO__ jtwc_wp WP071951 27.8000 128.200 85 2 28.0000 128.200 9 934 0 0 0 27.9000 128.100 6 126 936 27.8000 128.200 TC 85 27.7848 128.287 4 85 27.8000 128.200 85 935 480 3 322
1951223N11148 1951 56 WP MM MARGE 1951-08-18 21:00:00 TS 27.9682 128.091 main 410 405 PPP______PPP__ WP071951 27.9200 128.100 87 2 28.0199 128.180 9 934 0 0 28.1001 127.908 6 126 936 27.9200 128.100 TC 87 27.9292 128.157 4 87 27.9200 128.100 87 935 480 4 324
1951223N11148 1951 56 WP MM MARGE 1951-08-19 00:00:00 TS 28.1333 127.967 935 tokyo main 405 388 OOO______OOO__ jtwc_wp WP071951 28.1000 128.000 90 2 28.1000 128.100 9 935 0 0 0 28.3000 127.700 6 126 936 28.1000 128.000 TC 90 28.1000 128.000 4 90 28.1000 128.000 90 935 480 5 332
1951223N11148 1951 56 WP MM MARGE 1951-08-19 03:00:00 TS 28.4249 127.811 main 388 368 PPP______PPP__ WP071951 28.4499 127.880 87 2 28.3701 127.873 9 936 0 0 28.4999 127.550 6 121 936 28.4499 127.880 TC 87 28.3295 127.804 4 88 28.4499 127.880 87 936 450 7 332
1951223N11148 1951 56 WP MM MARGE 1951-08-19 06:00:00 TS 28.7309 127.613 937 tokyo main 374 364 OOO______OPO__ jtwc_wp WP071951 28.8000 127.700 85 2 28.7000 127.600 9 937 0 0 0 28.7000 127.400 6 116 937 28.8000 127.700 TC 85 28.5851 127.580 4 87 28.8000 127.700 85 938 420 6 322
1951223N11148 1951 56 WP MM MARGE 1951-08-19 09:00:00 TS 28.9385 127.362 main 371 371 PPP______PPP__ WP071951 28.9727 127.400 85 2 28.9648 127.415 9 939 0 0 28.9000 127.215 6 116 938 28.9727 127.400 TC 85 28.8482 127.342 4 86 28.9727 127.400 85 939 420 6 311
1951223N11148 1951 56 WP MM MARGE 1951-08-19 12:00:00 TS 29.1167 127.100 941 tokyo main 378 371 OOO______OOO__ jtwc_wp WP071951 29.1000 127.100 85 2 29.2000 127.200 9 941 0 0 0 29.1000 127.000 6 116 940 29.1000 127.100 TC 85 29.1000 127.100 4 85 29.1000 127.100 85 940 420 6 313
1951223N11148 1951 56 WP MM MARGE 1951-08-19 15:00:00 TS 29.3165 126.893 main 380 374 PPP______PPP__ WP071951 29.2923 126.950 80 1 29.4076 126.865 9 945 0 0 29.2924 126.765 6 111 941 29.2923 126.950 TC 80 29.3223 126.879 4 82 29.2923 126.950 80 940 480 5 318
1951223N11148 1951 56 WP MM MARGE 1951-08-19 18:00:00 TS 29.5216 126.676 950 tokyo main 385 385 OOO______OPO__ jtwc_wp WP071951 29.5000 126.800 75 1 29.6000 126.500 9 950 0 0 0 29.5000 126.500 6 106 943 29.5000 126.800 TC 75 29.5298 126.657 4 80 29.5000 126.800 75 941 540 6 314
1951223N11148 1951 56 WP MM MARGE 1951-08-19 21:00:00 TS 29.7375 126.389 main 390 368 PPP______PPP__ WP071951 29.7152 126.500 75 1 29.7847 126.215 9 950 0 0 29.7726 126.185 6 106 943 29.7152 126.500 TC 75 29.7223 126.432 4 77 29.7152 126.500 75 942 540 6 309
1951223N11148 1951 56 WP MM MARGE 1951-08-20 00:00:00 TS 29.9333 126.100 950 tokyo main 368 347 OOO______OOO__ jtwc_wp WP071951 29.9000 126.200 75 1 30.0000 125.900 9 950 0 0 0 30.0000 125.900 6 106 943 29.9000 126.200 TC 75 29.9000 126.200 4 75 29.9000 126.200 75 943 540 6 307
1951223N11148 1951 56 WP MM MARGE 1951-08-20 03:00:00 TS 30.0752 125.880 main 347 337 PPP______PPP__ WP071951 29.9997 126.057 72 1 30.3230 125.413 9 947 0 0 30.0648 125.735 6 106 943 29.9997 126.057 TC 72 30.0642 125.961 4 73 29.9997 126.057 72 943 540 5 306
1951223N11148 1951 56 WP MM MARGE 1951-08-20 06:00:00 TS 30.2025 125.669 944 tokyo main 339 323 OOO______OPO__ jtwc_wp WP071951 30.1000 125.900 70 1 30.6000 125.000 9 944 0 0 0 30.1000 125.600 6 106 944 30.1000 125.900 TC 70 30.2148 125.714 4 72 30.1000 125.900 70 944 540 5 305
1951223N11148 1951 56 WP MM MARGE 1951-08-20 09:00:00 TS 30.3622 125.406 main 323 315 PPP______PPP__ WP071951 30.2927 125.565 70 1 30.6872 124.882 9 942 0 0 30.2500 125.400 6 106 944 30.2927 125.565 TC 70 30.3580 125.461 4 71 30.2927 125.565 70 944 540 5 305
1951223N11148 1951 56 WP MM MARGE 1951-08-20 12:00:00 TS 30.5167 125.150 941 tokyo main 318 297 OOO______OOO__ jtwc_wp WP071951 30.5000 125.200 70 1 30.7000 124.900 9 941 0 0 0 30.4000 125.200 6 106 944 30.5000 125.200 TC 70 30.5000 125.200 4 70 30.5000 125.200 70 944 540 5 304
1951223N11148 1951 56 WP MM MARGE 1951-08-20 15:00:00 TS 30.6350 124.946 main 288 277 PPP______PPP__ WP071951 30.6573 124.942 70 1 30.7500 124.900 9 941 0 0 30.4500 125.035 6 106 945 30.6573 124.942 TC 70 30.6380 124.912 4 70 30.6573 124.942 70 944 630 4 304
1951223N11148 1951 56 WP MM MARGE 1951-08-20 18:00:00 TS 30.7463 124.753 941 tokyo main 277 247 OOO______OPO__ jtwc_wp WP071951 30.8000 124.700 70 1 30.8000 124.900 9 941 0 0 0 30.5000 124.900 6 106 946 30.8000 124.700 TC 70 30.7778 124.620 4 70 30.8000 124.700 70 945 720 4 304
1951223N11148 1951 56 WP MM MARGE 1951-08-20 21:00:00 TS 30.8723 124.536 main 247 228 PPP______PPP__ WP071951 30.9426 124.385 70 1 30.8349 124.895 9 942 0 0 30.6424 124.822 6 106 946 30.9426 124.385 TC 70 30.9286 124.343 4 70 30.9426 124.385 70 945 630 5 306
1951223N11148 1951 56 WP MM MARGE 1951-08-21 00:00:00 TS 31.0167 124.317 943 tokyo main 228 210 OOO______OOO__ jtwc_wp WP071951 31.1000 124.100 70 1 30.9000 124.800 9 943 0 0 0 30.8000 124.700 6 106 946 31.1000 124.100 TC 70 31.1000 124.100 4 70 31.1000 124.100 70 945 540 5 310
1951223N11148 1951 56 WP MM MARGE 1951-08-21 03:00:00 TS 31.1809 124.102 main 211 192 PPP______PPP__ WP071951 31.2849 123.927 70 1 31.0351 124.538 9 945 0 0 30.8927 124.415 6 101 946 31.2849 123.927 TC 70 31.3033 123.878 4 68 31.2849 123.927 70 946 570 5 315
1951223N11148 1951 56 WP MM MARGE 1951-08-21 06:00:00 TS 31.3712 123.899 947 tokyo main 192 170 OOO______OPO__ jtwc_wp WP071951 31.5000 123.800 70 1 31.2000 124.200 9 947 0 0 0 31.0000 124.100 5 97 947 31.5000 123.800 TC 70 31.5273 123.696 4 67 31.5000 123.800 70 948 600 5 319
1951223N11148 1951 56 WP MM MARGE 1951-08-21 09:00:00 TS 31.5838 123.692 main 170 160 PPP______PPP__ WP071951 31.7425 123.620 67 1 31.3351 123.863 9 950 0 0 31.1775 123.863 5 92 950 31.7425 123.620 TC 67 31.7627 123.565 4 66 31.7425 123.620 67 950 600 5 326
1951223N11148 1951 56 WP MM MARGE 1951-08-21 12:00:00 TS 31.8167 123.550 954 tokyo main 160 151 OOO______OOO__ jtwc_wp WP071951 32.0000 123.500 65 1 31.5000 123.600 9 954 0 0 0 31.4000 123.700 5 87 954 32.0000 123.500 TC 65 32.0000 123.500 4 65 32.0000 123.500 65 952 600 5 343
1951223N11148 1951 56 WP MM MARGE 1951-08-21 15:00:00 TS 32.0591 123.518 main 157 157 PPP______PPP__ WP071951 32.2575 123.512 65 1 31.7349 123.490 9 957 0 0 31.6349 123.605 5 82 957 32.2575 123.512 TC 65 32.2124 123.474 4 65 32.2575 123.512 65 954 600 5 0
1951223N11148 1951 56 WP MM MARGE 1951-08-21 18:00:00 TS 32.3045 123.569 960 tokyo main 173 173 OOO______OPO__ jtwc_wp WP071951 32.5000 123.600 65 1 32.0000 123.500 9 960 0 0 0 31.9000 123.600 4 77 960 32.5000 123.600 TC 65 32.4269 123.516 4 65 32.5000 123.600 65 956 600 5 13
1951223N11148 1951 56 WP MM MARGE 1951-08-21 21:00:00 TS 32.5313 123.653 main 191 191 PPP______PPP__ WP071951 32.7000 123.685 65 1 32.2350 123.570 9 963 0 0 32.2000 123.670 4 72 963 32.7000 123.685 TC 65 32.6530 123.624 4 65 32.7000 123.685 65 957 600 5 21
1951223N11148 1951 56 WP MM MARGE 1951-08-22 00:00:00 TS 32.7667 123.783 966 tokyo main 216 216 OOO______OOO__ jtwc_wp WP071951 32.9000 123.800 65 1 32.5000 123.700 9 966 0 0 0 32.5000 123.800 4 68 966 32.9000 123.800 TC 65 32.9000 123.800 4 65 32.9000 123.800 65 959 600 5 24
1951223N11148 1951 56 WP MM MARGE 1951-08-22 03:00:00 TS 33.0269 123.918 main 216 194 PPP______PPP__ WP071951 33.1272 123.898 62 0 32.8500 123.835 9 969 0 0 32.7425 123.943 4 63 969 33.1272 123.898 TC 62 33.1870 124.038 4 63 33.1272 123.898 62 961 570 6 27
1951223N11148 1951 56 WP MM MARGE 1951-08-22 06:00:00 TS 33.3155 124.123 973 tokyo main 194 169 OOO______OPO__ jtwc_wp WP071951 33.4000 124.100 60 0 33.2000 124.000 9 973 0 0 0 33.0000 124.100 3 58 973 33.4000 124.100 TC 60 33.4930 124.339 4 62 33.4000 124.100 60 963 540 8 36
1951223N11148 1951 56 WP MM MARGE 1951-08-22 09:00:00 TS 33.6348 124.444 main 169 145 PPP______PPP__ WP071951 33.7355 124.534 60 0 33.4574 124.178 9 975 0 0 33.3423 124.213 3 58 975 33.7355 124.534 TC 60 33.8026 124.670 4 61 33.7355 124.534 60 965 510 9 41
1951223N11148 1951 56 WP MM MARGE 1951-08-22 12:00:00 TS 33.9667 124.800 978 tokyo main 149 114 OOO______OOO__ jtwc_wp WP071951 34.1000 125.000 60 0 33.7000 124.400 9 978 0 0 0 33.7000 124.400 3 58 978 34.1000 125.000 TC 60 34.1000 125.000 2 60 34.1000 125.000 60 967 480 8 40
1951223N11148 1951 56 WP MM MARGE 1951-08-22 15:00:00 TS 34.2708 125.080 main 114 82 PPP______PPP__ WP071951 34.4797 125.273 57 0 33.9620 124.634 9 980 0 0 33.9777 124.763 3 58 980 34.4797 125.273 TC 57 34.2461 125.267 2 57 34.4797 125.273 57 968 480 8 38
1951223N11148 1951 56 WP MM MARGE 1951-08-22 18:00:00 TS 34.5662 125.371 983 tokyo main 82 54 OOO______OPO__ jtwc_wp WP071951 34.8000 125.500 55 0 34.3000 125.000 9 983 0 0 0 34.3000 125.200 3 58 983 34.8000 125.500 TC 55 34.3969 125.528 2 55 34.8000 125.500 55 970 480 7 48
1951223N11148 1951 56 WP MM MARGE 1951-08-22 21:00:00 TS 34.7537 125.726 main 55 9 PPP______PPP__ WP071951 34.8523 125.772 52 0 34.6585 125.643 9 984 0 0 34.6574 125.595 3 58 984 34.8523 125.772 TC 52 34.6492 125.800 2 52 34.8523 125.772 52 972 480 9 46
1951223N11148 1951 56 WP MM MARGE 1951-08-23 00:00:00 TS 35.1667 126.117 985 tokyo main 14 0 OOO______OOO__ jtwc_wp WP071951 35.1000 126.100 50 0 35.3000 126.300 9 985 0 0 0 35.3000 126.000 3 58 985 35.1000 126.100 TC 50 35.1000 126.100 2 50 35.1000 126.100 50 974 480 15 26
1951223N11148 1951 56 WP MM MARGE 1951-08-23 03:00:00 TS 36.1285 126.536 main 0 0 PPP______PPP__ WP071951 35.9803 126.541 47 0 36.4596 126.710 9 985 0 0 36.4678 126.463 3 53 985 35.9803 126.541 TC 47 35.9024 126.423 2 47 35.9803 126.541 47 976 450 22 17
1951223N11148 1951 56 WP MM MARGE 1951-08-23 06:00:00 TS 37.2998 126.948 985 tokyo main 0 0 OOO______OPO__ jtwc_wp WP071951 37.1000 127.000 45 0 37.8000 127.000 9 985 0 0 0 37.8000 126.900 3 48 985 37.1000 127.000 TC 45 36.8989 126.787 2 45 37.1000 127.000 45 978 420 23 14
1951223N11148 1951 56 WP MM MARGE 1951-08-23 09:00:00 TS 38.3461 127.255 main 0 0 PPP______PPP__ WP071951 38.0717 127.323 42 0 38.9739 127.194 9 985 0 0 38.9163 127.159 3 48 985 38.0717 127.323 TC 42 37.9710 127.208 2 42 38.0717 127.323 42 979 420 21 15
1951223N11148 1951 56 WP MM MARGE 1951-08-23 12:00:00 TS 39.3167 127.633 985 tokyo main 0 0 OOO______OOO__ jtwc_wp WP071951 39.0000 127.700 40 0 40.0000 127.500 9 985 0 0 0 39.9000 127.500 3 48 985 39.0000 127.700 TC 40 39.0000 127.700 2 40 39.0000 127.700 40 981 420 20 23
1951223N11148 1951 56 WP MM MARGE 1951-08-23 15:00:00 TS 40.1857 128.266 main 0 0 PPP______PPP__ WP071951 39.8952 128.304 40 0 40.8036 128.204 9 985 0 0 40.7310 128.212 3 43 985 39.8952 128.304 TC 40 39.8940 128.269 2 38 39.8952 128.304 40 983 450 20 31
1951223N11148 1951 56 WP MM MARGE 1951-08-23 18:00:00 TS 41.0149 128.986 985 tokyo main 0 0 OOO______OPO__ jtwc_wp WP071951 40.7000 129.000 40 0 41.5000 129.000 9 985 0 0 0 41.5000 129.000 2 38 985 40.7000 129.000 TC 40 40.6659 128.904 2 37 40.7000 129.000 40 985 480 19 32
1951223N11148 1951 56 WP MM MARGE 1951-08-23 21:00:00 TS 41.8255 129.630 main 0 0 PPP______PPP__ WP071951 41.3853 129.664 37 0 42.2119 129.598 9 985 0 0 42.3348 129.633 2 38 985 41.3853 129.664 TC 37 41.3549 129.586 2 36 41.3853 129.664 37 987 480 19 27
1951223N11148 1951 56 WP MM MARGE 1951-08-24 00:00:00 TS 42.7333 130.167 985 tokyo main 0 0 OOO______OOO__ jtwc_wp WP071951 42.0000 130.300 35 0 43.0000 130.100 9 985 0 0 0 43.2000 130.100 2 38 985 42.0000 130.300 TC 35 42.0000 130.300 2 35 42.0000 130.300 35 989 480 23 16
1951223N11148 1951 56 WP MM MARGE 1951-08-24 03:00:00 TS 44.0753 130.480 main 0 0 _PP___________ WP071951 -1 44.0737 130.505 9 986 0 0 44.0768 130.455 2 33 985 TC 2 23 10
1951223N11148 1951 56 WP MM MARGE 1951-08-24 06:00:00 ET 45.0000 130.714 987 tokyo main 0 0 _OO___________ -1 45.0000 131.000 9 987 0 0 0 45.0000 130.500 9 29 985 2 17 4
1951223N11148 1951 56 WP MM MARGE 1951-08-24 09:00:00 ET 45.8203 130.662 main 0 0 _PP___________ -1 45.4148 131.766 9 988 0 0 46.0230 130.110 9 29 986 2 17 350
1951223N11148 1951 56 WP MM MARGE 1951-08-24 12:00:00 ET 46.6250 130.300 990 tokyo main 0 0 _OO___________ -1 45.5000 132.700 9 990 0 0 0 47.0000 129.500 9 29 987 23 330
1951223N11148 1951 56 WP MM MARGE 1951-08-24 15:00:00 ET 47.8048 128.964 main 0 0 __P___________ -1 9 0 0 47.8048 128.964 9 29 988 22 327
1951223N11148 1951 56 WP MM MARGE 1951-08-24 18:00:00 ET 48.5000 128.500 main 0 __O___________ -1 48.5000 128.500 9 29 990 15 336

Digital Typhoon Data and Search

About IBTrACS Database

This database is a web-friendly format of International Best Track Archive for Climate Stewardship (IBTrACS), a global best track data archive curated by NOAA dating back to 1842.

Updated: 2021-10-21